createdAt,value
2022-12-31T00:01:25.445Z,10.93
2022-12-31T00:03:53.393Z,10.07
2022-12-31T00:06:32.899Z,10.65
2022-12-31T00:09:05.485Z,10.57
2022-12-31T00:11:34.369Z,8.85
2022-12-31T00:14:01.629Z,8.88
2022-12-31T00:16:32.975Z,9.68
2022-12-31T00:19:01.534Z,11.27
2022-12-31T00:21:31.107Z,12.05
2022-12-31T00:23:59.333Z,9.98
2022-12-31T00:26:39.171Z,9.85
2022-12-31T00:29:06.588Z,10.80
2022-12-31T00:31:37.195Z,11.20
2022-12-31T00:34:05.548Z,10.85
2022-12-31T00:36:36.077Z,11.73
2022-12-31T00:39:07.599Z,10.07
2022-12-31T00:41:35.461Z,10.20
2022-12-31T00:44:04.397Z,14.23
2022-12-31T00:46:32.161Z,13.32
2022-12-31T00:49:01.336Z,12.48
2022-12-31T00:51:29.042Z,8.77
2022-12-31T00:53:58.225Z,13.43
2022-12-31T00:56:28.716Z,13.13
2022-12-31T00:58:56.773Z,12.52
2022-12-31T01:01:27.342Z,13.50
2022-12-31T01:04:02.191Z,13.25
2022-12-31T01:06:31.195Z,14.27
2022-12-31T01:08:58.784Z,11.98
2022-12-31T01:11:29.668Z,12.40
2022-12-31T01:14:02.802Z,11.88
2022-12-31T01:16:43.492Z,15.55
2022-12-31T01:19:13.828Z,12.90
2022-12-31T01:21:42.449Z,12.85
2022-12-31T01:24:11.022Z,14.10
2022-12-31T01:26:45.393Z,14.70
2022-12-31T01:29:13.363Z,13.50
2022-12-31T01:31:41.637Z,13.27
2022-12-31T01:34:10.355Z,16.15
2022-12-31T01:36:38.650Z,13.50
2022-12-31T01:39:09.171Z,13.77
2022-12-31T01:41:42.753Z,14.07
2022-12-31T01:46:46.581Z,12.80
2022-12-31T01:49:26.624Z,10.38
2022-12-31T01:52:17.514Z,12.88
2022-12-31T01:55:01.363Z,14.88
2022-12-31T02:00:04.497Z,12.43
2022-12-31T02:02:31.850Z,15.25
2022-12-31T02:05:03.078Z,10.02
2022-12-31T02:07:30.775Z,11.88
2022-12-31T02:09:58.316Z,11.77
2022-12-31T02:12:25.853Z,7.57
2022-12-31T02:14:54.768Z,12.80
2022-12-31T02:17:44.116Z,10.00
2022-12-31T02:20:20.625Z,8.13
2022-12-31T02:23:18.757Z,12.20
2022-12-31T02:25:55.103Z,10.25
2022-12-31T02:29:05.861Z,9.68
2022-12-31T02:31:54.794Z,11.65
2022-12-31T02:34:33.094Z,11.38
2022-12-31T02:37:03.946Z,11.57
2022-12-31T02:39:32.883Z,10.60
2022-12-31T02:42:01.077Z,9.82
2022-12-31T02:44:34.827Z,9.05
2022-12-31T02:47:20.615Z,8.45
2022-12-31T02:49:56.511Z,11.07
2022-12-31T02:52:51.736Z,9.60
2022-12-31T02:55:53.468Z,9.25
2022-12-31T02:58:56.977Z,10.15
2022-12-31T03:01:48.867Z,11.20
2022-12-31T03:04:32.411Z,10.07
2022-12-31T03:07:15.627Z,10.13
2022-12-31T03:09:43.523Z,8.38
2022-12-31T03:12:31.908Z,9.60
2022-12-31T03:15:01.547Z,9.93
2022-12-31T03:17:29.195Z,8.55
2022-12-31T03:20:15.876Z,9.18
2022-12-31T03:22:43.854Z,8.60
2022-12-31T03:25:54.723Z,9.02
2022-12-31T03:28:24.760Z,8.27
2022-12-31T03:31:00.652Z,8.20
2022-12-31T03:33:36.483Z,8.52
2022-12-31T03:36:13.004Z,8.90
2022-12-31T03:38:41.162Z,7.50
2022-12-31T03:41:11.292Z,7.55
2022-12-31T03:43:39.070Z,7.43
2022-12-31T03:46:06.563Z,6.85
2022-12-31T03:48:35.091Z,7.05
2022-12-31T03:51:02.443Z,6.25
2022-12-31T03:53:31.037Z,6.55
2022-12-31T03:55:58.314Z,6.35
2022-12-31T03:58:26.832Z,5.95
2022-12-31T04:00:54.292Z,5.95
2022-12-31T04:03:21.513Z,5.25
2022-12-31T04:05:56.284Z,5.97
2022-12-31T04:08:24.466Z,4.82
2022-12-31T04:10:51.844Z,4.22
2022-12-31T04:13:21.265Z,4.70
2022-12-31T04:15:52.158Z,4.63
2022-12-31T04:18:19.347Z,4.07
2022-12-31T04:20:46.774Z,3.90
2022-12-31T04:23:14.172Z,3.70
2022-12-31T04:25:41.632Z,4.03
2022-12-31T04:28:09.076Z,3.45
2022-12-31T04:30:36.567Z,3.13
2022-12-31T04:33:04.076Z,3.15
2022-12-31T04:35:31.459Z,3.05
2022-12-31T04:37:59.023Z,2.72
2022-12-31T04:40:34.079Z,2.58
2022-12-31T04:43:01.532Z,2.75
2022-12-31T04:45:29.983Z,2.75
2022-12-31T04:47:57.505Z,2.35
2022-12-31T04:50:25.019Z,2.63
2022-12-31T04:52:53.456Z,2.20
2022-12-31T04:55:21.882Z,2.38
2022-12-31T04:57:49.351Z,2.45
2022-12-31T05:00:16.895Z,2.63
2022-12-31T05:02:44.068Z,2.40
2022-12-31T05:05:11.739Z,2.75
2022-12-31T05:07:39.183Z,2.70
2022-12-31T05:10:07.122Z,2.63
2022-12-31T05:12:34.677Z,2.80
2022-12-31T05:15:02.037Z,2.40
2022-12-31T05:17:29.498Z,2.50
2022-12-31T05:19:57.024Z,2.30
2022-12-31T05:22:30.062Z,2.85
2022-12-31T05:24:59.817Z,2.40
2022-12-31T05:27:28.576Z,2.72
2022-12-31T05:29:56.040Z,2.70
2022-12-31T05:32:23.508Z,2.85
2022-12-31T05:34:53.928Z,2.80
2022-12-31T05:37:21.434Z,2.60
2022-12-31T05:39:49.055Z,2.58
2022-12-31T05:42:16.371Z,2.40
2022-12-31T05:44:43.899Z,2.60
2022-12-31T05:47:11.336Z,2.60
2022-12-31T05:49:39.897Z,2.42
2022-12-31T05:52:09.383Z,2.65
2022-12-31T05:54:40.103Z,2.30
2022-12-31T05:57:08.270Z,2.63
2022-12-31T05:59:36.042Z,2.33
2022-12-31T06:02:03.178Z,2.40
2022-12-31T06:04:30.736Z,2.38
2022-12-31T06:07:00.182Z,2.20
2022-12-31T06:09:27.636Z,2.30
2022-12-31T06:11:55.099Z,2.00
2022-12-31T06:14:23.725Z,1.83
2022-12-31T06:16:50.948Z,1.80
2022-12-31T06:19:18.388Z,1.90
2022-12-31T06:21:45.959Z,1.83
2022-12-31T06:24:14.467Z,1.52
2022-12-31T06:26:41.915Z,1.58
2022-12-31T06:29:09.619Z,1.67
2022-12-31T06:31:37.565Z,1.73
2022-12-31T06:34:05.752Z,1.80
2022-12-31T06:36:33.594Z,1.77
2022-12-31T06:39:01.708Z,2.20
2022-12-31T06:41:29.113Z,1.95
2022-12-31T06:43:56.671Z,1.50
2022-12-31T06:46:24.364Z,1.67
2022-12-31T06:48:51.676Z,1.63
2022-12-31T06:51:21.340Z,1.80
2022-12-31T06:53:50.791Z,1.75
2022-12-31T06:56:20.555Z,1.90
2022-12-31T06:58:49.338Z,1.38
2022-12-31T07:01:49.527Z,1.80
2022-12-31T07:04:28.697Z,1.33
2022-12-31T07:07:13.153Z,1.60
2022-12-31T07:09:46.454Z,1.60
2022-12-31T07:12:40.001Z,1.48
2022-12-31T07:15:16.781Z,1.88
2022-12-31T07:18:14.241Z,1.48
2022-12-31T07:20:47.847Z,1.90
2022-12-31T07:25:51.996Z,1.45
2022-12-31T07:28:35.139Z,1.73
2022-12-31T07:31:35.532Z,1.85
2022-12-31T07:34:16.567Z,1.70
2022-12-31T07:37:02.306Z,1.85
2022-12-31T07:40:08.593Z,1.92
2022-12-31T07:42:59.632Z,1.88
2022-12-31T07:46:12.003Z,1.67
2022-12-31T07:48:39.436Z,2.05
2022-12-31T07:51:07.083Z,1.77
2022-12-31T07:53:34.894Z,1.92
2022-12-31T07:56:05.836Z,2.00
2022-12-31T07:59:05.896Z,2.20
2022-12-31T08:02:03.865Z,2.17
2022-12-31T08:04:58.795Z,2.55
2022-12-31T08:07:36.725Z,2.58
2022-12-31T08:10:17.684Z,2.50
2022-12-31T08:12:49.909Z,2.60
2022-12-31T08:15:20.599Z,3.20
2022-12-31T08:17:50.609Z,2.97
2022-12-31T08:20:18.959Z,3.03
2022-12-31T08:23:10.146Z,3.40
2022-12-31T08:25:46.119Z,2.88
2022-12-31T08:28:30.654Z,2.85
2022-12-31T08:31:04.629Z,3.38
2022-12-31T08:33:53.358Z,2.88
2022-12-31T08:36:39.308Z,2.97
2022-12-31T08:39:25.035Z,3.72
2022-12-31T08:41:55.511Z,3.25
2022-12-31T08:44:44.999Z,3.00
2022-12-31T08:47:32.888Z,2.83
2022-12-31T08:50:03.031Z,3.05
2022-12-31T08:52:30.623Z,3.50
2022-12-31T08:54:58.568Z,3.00
2022-12-31T08:57:46.763Z,3.30
2022-12-31T09:00:19.500Z,3.17
2022-12-31T09:03:02.004Z,3.80
2022-12-31T09:05:58.488Z,4.00
2022-12-31T09:08:51.503Z,3.97
2022-12-31T09:11:42.876Z,4.22
2022-12-31T09:14:20.934Z,4.13
2022-12-31T09:17:09.339Z,3.85
2022-12-31T09:19:36.977Z,4.40
2022-12-31T09:22:04.734Z,4.00
2022-12-31T09:24:32.609Z,3.83
2022-12-31T09:27:30.596Z,3.55
2022-12-31T09:30:16.596Z,3.75
2022-12-31T09:33:00.599Z,3.40
2022-12-31T09:35:55.940Z,3.90
2022-12-31T09:39:09.015Z,4.18
2022-12-31T09:42:13.318Z,3.92
2022-12-31T09:45:11.693Z,4.18
2022-12-31T09:48:26.472Z,5.00
2022-12-31T09:53:56.340Z,5.50
2022-12-31T09:56:33.277Z,5.35
2022-12-31T09:59:34.664Z,5.07
2022-12-31T10:02:41.711Z,4.78
2022-12-31T10:05:31.743Z,4.28
2022-12-31T10:08:22.321Z,3.63
2022-12-31T10:11:01.864Z,4.00
2022-12-31T10:13:58.136Z,3.03
2022-12-31T10:17:03.962Z,3.30
2022-12-31T10:19:45.920Z,3.22
2022-12-31T10:22:46.103Z,2.95
2022-12-31T10:25:38.476Z,3.22
2022-12-31T10:28:32.675Z,3.22
2022-12-31T10:31:20.776Z,2.78
2022-12-31T10:34:16.110Z,3.65
2022-12-31T10:36:58.446Z,3.25
2022-12-31T10:39:54.601Z,3.28
2022-12-31T10:42:55.441Z,2.88
2022-12-31T10:45:26.088Z,3.25
2022-12-31T10:48:12.830Z,3.50
2022-12-31T10:51:15.620Z,3.22
2022-12-31T10:54:19.297Z,3.28
2022-12-31T10:57:18.530Z,3.90
2022-12-31T11:00:13.515Z,4.13
2022-12-31T11:02:40.917Z,3.65
2022-12-31T11:05:48.360Z,3.70
2022-12-31T11:08:38.471Z,6.07
2022-12-31T11:11:27.211Z,4.38
2022-12-31T11:14:35.387Z,3.97
2022-12-31T11:17:37.969Z,3.50
2022-12-31T11:20:25.142Z,3.30
2022-12-31T11:23:10.439Z,3.00
2022-12-31T11:26:03.176Z,3.05
2022-12-31T11:28:47.617Z,2.95
2022-12-31T11:31:33.118Z,2.83
2022-12-31T11:34:05.955Z,2.50
2022-12-31T11:36:56.541Z,3.00
2022-12-31T11:39:32.012Z,2.17
2022-12-31T11:42:24.817Z,2.60
2022-12-31T11:45:13.639Z,2.20
2022-12-31T11:48:20.607Z,2.00
2022-12-31T11:50:54.147Z,2.10
2022-12-31T11:53:31.181Z,2.30
2022-12-31T11:56:10.580Z,3.13
2022-12-31T11:58:38.359Z,3.03
2022-12-31T12:01:29.435Z,2.72
2022-12-31T12:03:56.973Z,3.28
2022-12-31T12:06:29.493Z,3.40
2022-12-31T12:09:03.053Z,3.50
2022-12-31T12:11:37.898Z,3.35
2022-12-31T12:14:37.652Z,3.35
2022-12-31T12:17:09.707Z,3.50
2022-12-31T12:19:44.862Z,3.60
2022-12-31T12:22:22.991Z,4.05
2022-12-31T12:24:56.709Z,3.90
2022-12-31T12:30:08.132Z,4.65
2022-12-31T12:33:02.126Z,5.10
2022-12-31T12:35:34.003Z,5.65
2022-12-31T12:38:12.604Z,5.13
2022-12-31T12:40:40.998Z,5.82
2022-12-31T12:43:23.917Z,6.93
2022-12-31T12:45:52.650Z,5.30
2022-12-31T12:48:44.256Z,5.57
2022-12-31T12:51:48.639Z,6.00
2022-12-31T12:54:25.368Z,6.30
2022-12-31T12:57:16.644Z,6.03
2022-12-31T13:00:04.905Z,6.25
2022-12-31T13:03:02.162Z,6.28
2022-12-31T13:05:40.665Z,5.68
2022-12-31T13:08:33.099Z,6.00
2022-12-31T13:11:26.560Z,6.10
2022-12-31T13:14:26.213Z,6.30
2022-12-31T13:17:35.420Z,5.70
2022-12-31T13:20:30.222Z,6.07
2022-12-31T13:23:06.850Z,6.65
2022-12-31T13:25:59.063Z,6.57
2022-12-31T13:28:28.421Z,6.90
2022-12-31T13:31:06.559Z,6.63
2022-12-31T13:33:39.683Z,6.57
2022-12-31T13:36:17.451Z,6.57
2022-12-31T13:38:52.451Z,7.05
2022-12-31T13:41:38.397Z,8.25
2022-12-31T13:44:30.435Z,7.65
2022-12-31T13:47:24.949Z,7.47
2022-12-31T13:50:20.170Z,7.40
2022-12-31T13:53:12.154Z,8.07
2022-12-31T13:55:58.180Z,7.85
2022-12-31T13:58:33.590Z,7.68
2022-12-31T14:01:12.691Z,8.43
2022-12-31T14:04:03.812Z,7.50
2022-12-31T14:06:53.625Z,7.10
2022-12-31T14:09:25.389Z,7.95
2022-12-31T14:12:13.729Z,7.20
2022-12-31T14:14:53.154Z,7.10
2022-12-31T14:17:34.096Z,7.25
2022-12-31T14:20:22.711Z,8.07
2022-12-31T14:23:29.586Z,7.28
2022-12-31T14:26:03.382Z,6.75
2022-12-31T14:29:09.043Z,5.93
2022-12-31T14:32:01.850Z,4.63
2022-12-31T14:34:52.352Z,4.45
2022-12-31T14:37:42.679Z,3.90
2022-12-31T14:40:17.678Z,4.10
2022-12-31T14:43:07.055Z,4.40
2022-12-31T14:45:46.257Z,4.15
2022-12-31T14:48:51.447Z,4.80
2022-12-31T14:51:19.052Z,4.53
2022-12-31T14:53:54.831Z,4.72
2022-12-31T14:56:40.525Z,4.25
2022-12-31T14:59:35.657Z,4.43
2022-12-31T15:02:24.676Z,4.75
2022-12-31T15:05:03.615Z,4.68
2022-12-31T15:07:48.677Z,4.53
2022-12-31T15:10:23.498Z,4.47
2022-12-31T15:13:08.048Z,4.50
2022-12-31T15:16:14.021Z,4.70
2022-12-31T15:18:49.824Z,4.88
2022-12-31T15:21:41.780Z,5.45
2022-12-31T15:24:31.186Z,5.25
2022-12-31T15:27:05.353Z,5.63
2022-12-31T15:29:51.209Z,6.88
2022-12-31T15:32:23.699Z,7.35
2022-12-31T15:35:05.556Z,7.43
2022-12-31T15:37:36.214Z,7.20
2022-12-31T15:40:25.397Z,8.38
2022-12-31T15:43:19.741Z,8.98
2022-12-31T15:48:22.420Z,9.80
2022-12-31T15:53:43.099Z,11.05
2022-12-31T15:56:27.361Z,13.85
2022-12-31T15:58:58.981Z,13.93
2022-12-31T16:01:36.635Z,12.57
2022-12-31T16:04:28.309Z,12.98
2022-12-31T16:07:01.463Z,12.10
2022-12-31T16:09:36.343Z,11.35
2022-12-31T16:12:16.398Z,9.63
2022-12-31T16:14:45.477Z,8.00
2022-12-31T16:17:35.348Z,7.90
2022-12-31T16:20:22.671Z,7.30
2022-12-31T16:23:00.552Z,6.88
2022-12-31T16:25:31.564Z,6.70
2022-12-31T16:28:03.124Z,5.80
2022-12-31T16:30:36.710Z,5.82
2022-12-31T16:33:07.533Z,6.00
2022-12-31T16:35:37.796Z,4.95
2022-12-31T16:38:08.243Z,5.28
2022-12-31T16:40:44.651Z,5.03
2022-12-31T16:43:38.105Z,5.47
2022-12-31T16:46:27.243Z,7.60
2022-12-31T16:49:04.787Z,4.28
2022-12-31T16:51:34.504Z,5.45
2022-12-31T16:54:02.835Z,5.75
2022-12-31T16:56:39.799Z,4.22
2022-12-31T16:59:18.531Z,4.13
2022-12-31T17:01:47.321Z,4.43
2022-12-31T17:04:21.744Z,4.70
2022-12-31T17:06:54.850Z,4.90
2022-12-31T17:09:36.904Z,4.18
2022-12-31T17:12:19.768Z,3.90
2022-12-31T17:15:05.677Z,4.68
2022-12-31T17:17:38.281Z,6.18
2022-12-31T17:20:09.644Z,5.05
2022-12-31T17:22:46.733Z,4.60
2022-12-31T17:25:25.676Z,3.47
2022-12-31T17:27:58.785Z,3.67
2022-12-31T17:30:28.751Z,3.58
2022-12-31T17:33:09.764Z,3.05
2022-12-31T17:35:49.854Z,6.13
2022-12-31T17:38:23.879Z,10.13
2022-12-31T17:41:05.677Z,11.13
2022-12-31T17:43:38.385Z,11.93
2022-12-31T17:46:17.269Z,10.45
2022-12-31T17:48:55.543Z,11.15
2022-12-31T17:51:24.288Z,10.95
2022-12-31T17:53:51.964Z,10.52
2022-12-31T17:56:20.624Z,10.48
2022-12-31T17:58:51.826Z,10.68
2022-12-31T18:01:21.950Z,10.15
2022-12-31T18:03:49.237Z,10.23
2022-12-31T18:06:17.413Z,9.48
2022-12-31T18:08:44.989Z,9.80
2022-12-31T18:11:18.209Z,9.68
2022-12-31T18:13:45.767Z,10.18
2022-12-31T18:16:15.774Z,9.40
2022-12-31T18:18:44.049Z,10.35
2022-12-31T18:21:35.197Z,9.73
2022-12-31T18:26:33.357Z,9.80
2022-12-31T18:29:17.919Z,10.30
2022-12-31T18:31:47.043Z,10.48
2022-12-31T18:34:20.700Z,9.40
2022-12-31T18:36:48.144Z,9.18
2022-12-31T18:39:15.591Z,8.13
2022-12-31T18:41:49.859Z,8.07
2022-12-31T18:44:17.799Z,7.97
2022-12-31T18:46:45.203Z,6.32
2022-12-31T18:49:14.576Z,7.00
2022-12-31T18:51:42.026Z,6.57
2022-12-31T18:54:12.334Z,6.70
2022-12-31T18:56:43.437Z,5.75
2022-12-31T18:59:14.841Z,5.70
2022-12-31T19:01:42.312Z,5.20
2022-12-31T19:04:27.711Z,4.97
2022-12-31T19:06:56.945Z,5.40
2022-12-31T19:09:44.611Z,5.38
2022-12-31T19:12:15.295Z,5.18
2022-12-31T19:14:43.034Z,5.22
2022-12-31T19:17:11.387Z,5.45
2022-12-31T19:19:38.845Z,5.05
2022-12-31T19:22:06.438Z,4.93
2022-12-31T19:24:34.581Z,4.70
2022-12-31T19:27:01.816Z,5.30
2022-12-31T19:29:29.473Z,5.03
2022-12-31T19:31:58.364Z,6.30
2022-12-31T19:34:26.671Z,5.55
2022-12-31T19:36:54.132Z,5.55
2022-12-31T19:39:21.991Z,6.13
2022-12-31T19:41:56.636Z,6.10
2022-12-31T19:44:27.596Z,6.13
2022-12-31T19:46:54.753Z,6.07
2022-12-31T19:49:27.770Z,5.90
2022-12-31T19:51:55.269Z,5.93
2022-12-31T19:54:23.699Z,7.25
2022-12-31T19:56:51.200Z,5.60
2022-12-31T19:59:18.684Z,5.60
2022-12-31T20:01:48.208Z,5.50
2022-12-31T20:04:18.523Z,4.97
2022-12-31T20:06:45.594Z,4.78
2022-12-31T20:09:13.166Z,5.03
2022-12-31T20:11:40.608Z,5.18
2022-12-31T20:14:10.413Z,4.30
2022-12-31T20:16:37.533Z,4.70
2022-12-31T20:19:06.331Z,6.80
2022-12-31T20:21:35.446Z,9.68
2022-12-31T20:24:02.969Z,10.20
2022-12-31T20:26:30.723Z,14.02
2022-12-31T20:28:57.944Z,13.15
2022-12-31T20:31:27.497Z,14.05
2022-12-31T20:33:56.388Z,15.45
2022-12-31T20:36:24.355Z,8.48
2022-12-31T20:38:51.915Z,9.20
2022-12-31T20:41:22.581Z,8.82
2022-12-31T20:43:50.299Z,10.90
2022-12-31T20:46:25.010Z,17.90
2022-12-31T20:48:54.467Z,15.18
2022-12-31T20:51:23.356Z,14.30
2022-12-31T20:53:59.830Z,13.95
2022-12-31T20:56:29.540Z,16.73
2022-12-31T20:58:57.580Z,14.30
2022-12-31T21:01:36.406Z,10.93
2022-12-31T21:04:13.971Z,8.38
2022-12-31T21:06:43.469Z,9.70
2022-12-31T21:09:11.193Z,8.32
2022-12-31T21:11:56.772Z,8.15
2022-12-31T21:14:24.499Z,8.73
2022-12-31T21:16:52.812Z,9.50
2022-12-31T21:19:20.376Z,8.60
2022-12-31T21:21:48.522Z,9.30
2022-12-31T21:24:23.314Z,8.00
2022-12-31T21:26:51.949Z,8.93
2022-12-31T21:29:19.282Z,10.50
2022-12-31T21:31:46.726Z,9.32
2022-12-31T21:34:15.297Z,9.98
2022-12-31T21:36:42.711Z,9.98
2022-12-31T21:39:10.215Z,9.90
2022-12-31T21:41:53.612Z,10.23
2022-12-31T21:44:23.651Z,11.18
2022-12-31T21:47:33.407Z,11.45
2022-12-31T21:49:43.298Z,10.95
2022-12-31T21:52:33.762Z,12.07
2022-12-31T21:55:21.404Z,10.65
2022-12-31T22:00:56.769Z,10.77
2022-12-31T22:03:29.632Z,10.70
2022-12-31T22:06:16.486Z,9.55
2022-12-31T22:08:49.130Z,9.90
2022-12-31T22:11:18.740Z,10.55
2022-12-31T22:13:48.172Z,9.50
2022-12-31T22:16:17.469Z,10.30
2022-12-31T22:18:45.002Z,10.95
2022-12-31T22:21:18.895Z,11.05
2022-12-31T22:23:53.122Z,12.25
2022-12-31T22:26:25.863Z,12.48
2022-12-31T22:28:59.528Z,8.88
2022-12-31T22:31:31.463Z,8.38
2022-12-31T22:34:00.145Z,7.97
2022-12-31T22:36:27.976Z,6.97
2022-12-31T22:38:58.707Z,7.60
2022-12-31T22:41:29.249Z,7.43
2022-12-31T22:44:03.468Z,7.10
2022-12-31T22:46:32.449Z,6.40
2022-12-31T22:49:02.280Z,5.97
2022-12-31T22:51:56.281Z,5.40
2022-12-31T22:54:22.194Z,6.38
2022-12-31T22:56:51.520Z,4.65
2022-12-31T22:59:20.088Z,5.18
2022-12-31T23:01:47.628Z,5.07
2022-12-31T23:04:15.591Z,5.53
2022-12-31T23:06:45.801Z,5.40
2022-12-31T23:09:34.467Z,6.95
2022-12-31T23:12:06.476Z,7.28
2022-12-31T23:15:11.797Z,6.10
2022-12-31T23:18:00.001Z,6.28
2022-12-31T23:20:45.947Z,5.63
2022-12-31T23:23:16.777Z,5.88
2022-12-31T23:25:48.275Z,5.57
2022-12-31T23:28:22.273Z,6.57
2022-12-31T23:30:54.030Z,6.80
2022-12-31T23:33:23.821Z,6.07
2022-12-31T23:36:01.996Z,6.40
2022-12-31T23:38:29.156Z,7.70
2022-12-31T23:41:00.649Z,7.60
2022-12-31T23:43:29.086Z,7.85
2022-12-31T23:45:56.477Z,7.85
2022-12-31T23:48:24.044Z,8.52
2022-12-31T23:50:54.004Z,8.25
2022-12-31T23:53:23.642Z,8.77
2022-12-31T23:55:51.639Z,8.40
2022-12-31T23:58:25.121Z,8.68
